KOVE/OVE METAR and TAF weather

Enter ICAO airport designator
Station Type Date Time Source
KOVE METAR 2019/08/22 06:53 UTC NOAA

KOVE 220653Z AUTO 05004KT 10SM CLR 26/13 A2981 RMK AO2 SLP094 T02610133


Station Type Date Time Source
KOVE Decoded METAR 2019/08/22 06:53 UTC NOAA

Station name not available
Aug 22, 2019 - 02:53 AM EDT / 2019.08.22 0653 UTC
Wind: from the NE (050 degrees) at 5 MPH (4 KT):0
Visibility: 10 mile(s):0
Sky conditions: clear
Temperature: 79.0 F (26.1 C)
Dew Point: 55.9 F (13.3 C)
Relative Humidity: 45%
Pressure (altimeter): 29.81 in. Hg (1009 hPa)
ob: KOVE 220653Z AUTO 05004KT 10SM CLR 26/13 A2981 RMK AO2 SLP094 T02610133
cycle: 7

Station Type Date Time Source
KOVE TAF UTC NOAA

Error!

Example: see airport list